createdAt,value
2019-04-29T00:04:53.148Z,62.2
2019-04-29T00:09:53.125Z,62.1
2019-04-29T00:14:53.154Z,62.4
2019-04-29T00:19:53.327Z,61.7
2019-04-29T00:24:53.265Z,62.8
2019-04-29T00:29:53.201Z,63.5
2019-04-29T00:34:53.321Z,62.3
2019-04-29T00:39:53.366Z,64.2
2019-04-29T00:44:53.403Z,64.2
2019-04-29T00:49:53.315Z,64.2
2019-04-29T00:54:53.368Z,64.2
2019-04-29T00:59:53.393Z,63.7
2019-04-29T01:04:53.395Z,65
2019-04-29T01:09:53.352Z,64.9
2019-04-29T01:14:53.166Z,65.2
2019-04-29T01:19:53.324Z,65.4
2019-04-29T01:24:53.373Z,65.7
2019-04-29T01:29:53.181Z,65.7
2019-04-29T01:34:53.513Z,66.6
2019-04-29T01:39:53.363Z,66.5
2019-04-29T01:44:53.201Z,67.2
2019-04-29T01:49:53.177Z,67.9
2019-04-29T01:54:53.353Z,67.4
2019-04-29T01:59:53.589Z,68.3
2019-04-29T02:04:53.211Z,68.1
2019-04-29T02:09:53.552Z,67.8
2019-04-29T02:14:53.215Z,68.6
2019-04-29T02:19:53.424Z,68.5
2019-04-29T02:24:53.218Z,70.3
2019-04-29T02:29:53.677Z,69.6
2019-04-29T02:34:53.376Z,70.5
2019-04-29T02:39:53.233Z,69.6
2019-04-29T02:44:53.361Z,69.5
2019-04-29T02:49:53.439Z,68.5
2019-04-29T02:54:53.344Z,69.4
2019-04-29T02:59:53.391Z,69
2019-04-29T03:04:53.736Z,69.1
2019-04-29T03:09:53.234Z,68.6
2019-04-29T03:14:53.264Z,68.9
2019-04-29T03:19:53.443Z,69.1
2019-04-29T03:24:53.224Z,68.9
2019-04-29T03:29:53.236Z,67.9
2019-04-29T03:34:53.437Z,67.6
2019-04-29T03:39:53.251Z,69.1
2019-04-29T03:44:53.248Z,68.3
2019-04-29T03:49:53.266Z,68.7
2019-04-29T03:54:53.264Z,68.5
2019-04-29T03:59:56.761Z,68.2
2019-04-29T04:04:53.439Z,68.9
2019-04-29T04:09:53.344Z,69.3
2019-04-29T04:14:53.499Z,67.8
2019-04-29T04:19:53.271Z,68.9
2019-04-29T04:24:53.449Z,68.8
2019-04-29T04:29:53.512Z,68
2019-04-29T04:34:53.375Z,68.2
2019-04-29T04:39:53.279Z,68.5
2019-04-29T04:44:53.293Z,69.3
2019-04-29T04:49:53.290Z,68.5
2019-04-29T04:54:53.449Z,68.5
2019-04-29T04:59:53.498Z,68.3
2019-04-29T05:04:53.404Z,67.8
2019-04-29T05:09:53.452Z,68.4
2019-04-29T05:14:53.505Z,68.1
2019-04-29T05:19:53.530Z,67.8
2019-04-29T05:24:53.449Z,68.3
2019-04-29T05:29:53.478Z,70.4
2019-04-29T05:34:55.338Z,70.7
2019-04-29T05:39:53.309Z,71
2019-04-29T05:44:53.479Z,71.1
2019-04-29T05:49:53.534Z,71.7
2019-04-29T05:54:53.442Z,72.6
2019-04-29T05:59:53.326Z,72.2
2019-04-29T06:04:54.210Z,71.7
2019-04-29T06:09:53.733Z,72.6
2019-04-29T06:14:53.316Z,74.3
2019-04-29T06:19:53.512Z,74.6
2019-04-29T06:24:53.344Z,74.3
2019-04-29T06:29:53.328Z,75.3
2019-04-29T06:34:53.526Z,75.1
2019-04-29T06:39:53.551Z,73.8
2019-04-29T06:44:53.481Z,74.6
2019-04-29T06:49:53.358Z,74.5
2019-04-29T06:54:53.385Z,75.1
2019-04-29T06:59:55.066Z,75.3
2019-04-29T07:04:53.356Z,75.6
2019-04-29T07:09:57.189Z,75.4
2019-04-29T07:14:53.365Z,76.5
2019-04-29T07:19:53.517Z,78.4
2019-04-29T07:24:53.539Z,78.1
2019-04-29T07:29:53.594Z,78.3
2019-04-29T07:34:53.504Z,78.1
2019-04-29T07:39:53.554Z,79
2019-04-29T07:44:54.466Z,79.6
2019-04-29T07:49:53.459Z,79.1
2019-04-29T07:54:56.358Z,80.2
2019-04-29T07:59:53.487Z,80.2
2019-04-29T08:04:53.616Z,80.5
2019-04-29T08:09:53.560Z,79.2
2019-04-29T08:15:03.398Z,80.4
2019-04-29T08:19:53.632Z,79.2
2019-04-29T08:24:53.561Z,80.6
2019-04-29T08:29:53.590Z,79.7
2019-04-29T08:35:00.998Z,81.2
2019-04-29T08:40:16.580Z,81.3
2019-04-29T08:44:59.575Z,80.7
2019-04-29T08:49:53.421Z,80.8
2019-04-29T08:54:57.269Z,81.6
2019-04-29T08:59:53.573Z,80.3
2019-04-29T09:04:54.283Z,81.6
2019-04-29T09:10:01.534Z,81.3
2019-04-29T09:14:53.423Z,80
2019-04-29T09:19:53.642Z,81
2019-04-29T09:24:53.498Z,79.6
2019-04-29T09:29:58.981Z,80.1
2019-04-29T09:34:59.401Z,79.2
2019-04-29T09:39:53.594Z,79.7
2019-04-29T09:44:53.602Z,79.3
2019-04-29T09:49:53.621Z,79.1
2019-04-29T09:54:53.437Z,78.3
2019-04-29T09:59:53.689Z,77.9
2019-04-29T10:04:57.184Z,77.3
2019-04-29T10:10:02.087Z,76.8
2019-04-29T10:14:53.781Z,75.5
2019-04-29T10:19:53.613Z,74.8
2019-04-29T10:24:53.661Z,75.5
2019-04-29T10:29:57.037Z,75
2019-04-29T10:34:53.609Z,74.8
2019-04-29T10:39:53.643Z,75.2
2019-04-29T10:44:53.691Z,75.2
2019-04-29T10:49:53.466Z,75.5
2019-04-29T10:54:56.676Z,74.9
2019-04-29T10:59:53.479Z,76.8
2019-04-29T11:04:53.482Z,76.7
2019-04-29T11:09:53.489Z,77.4
2019-04-29T11:14:53.689Z,76.3
2019-04-29T11:19:53.503Z,76.3
2019-04-29T11:24:53.655Z,75.1
2019-04-29T11:29:53.479Z,75.4
2019-04-29T11:34:55.303Z,75.5
2019-04-29T11:39:56.743Z,74.9
2019-04-29T11:45:01.788Z,75.5
2019-04-29T11:49:53.504Z,74.9
2019-04-29T11:54:53.608Z,76.2
2019-04-29T11:59:53.668Z,76.3
2019-04-29T12:04:53.544Z,76.4
2019-04-29T12:09:53.735Z,77.3
2019-04-29T12:14:53.506Z,76.9
2019-04-29T12:19:53.722Z,76.2
2019-04-29T12:24:53.684Z,76.7
2019-04-29T12:29:59.320Z,77.3
2019-04-29T12:34:53.726Z,77.3
2019-04-29T12:39:53.747Z,77.8
2019-04-29T12:44:53.635Z,77.6
2019-04-29T12:49:53.535Z,77.6
2019-04-29T12:54:53.539Z,77.7
2019-04-29T12:59:55.111Z,78.2
2019-04-29T13:04:54.048Z,78.1
2019-04-29T13:09:53.531Z,77.5
2019-04-29T13:15:03.460Z,79.3
2019-04-29T13:20:02.576Z,79.3
2019-04-29T13:24:53.551Z,78.8
2019-04-29T13:29:53.681Z,77.9
2019-04-29T13:34:53.607Z,78.1
2019-04-29T13:39:55.957Z,78.1
2019-04-29T13:45:13.067Z,77.6
2019-04-29T13:49:53.566Z,76.9
2019-04-29T13:54:53.716Z,78.1
2019-04-29T13:59:53.779Z,76.7
2019-04-29T14:05:00.126Z,77.6
2019-04-29T14:09:53.612Z,78.3
2019-04-29T14:14:58.428Z,79
2019-04-29T14:19:57.263Z,79.6
2019-04-29T14:24:53.748Z,79.5
2019-04-29T14:29:53.592Z,82
2019-04-29T14:34:53.842Z,82.5
2019-04-29T14:39:53.603Z,82.2
2019-04-29T14:44:53.801Z,81.2
2019-04-29T14:49:55.406Z,82.4
2019-04-29T14:54:53.786Z,82.5
2019-04-29T14:59:54.190Z,83.2
2019-04-29T15:04:53.667Z,83.4
2019-04-29T15:09:57.760Z,83.5
2019-04-29T15:14:58.916Z,85.2
2019-04-29T15:19:56.694Z,83.7
2019-04-29T15:24:53.731Z,84
2019-04-29T15:29:53.964Z,84.4
2019-04-29T15:34:55.225Z,84
2019-04-29T15:39:58.002Z,85.1
2019-04-29T15:44:57.444Z,85
2019-04-29T15:50:00.602Z,85.6
2019-04-29T15:54:53.859Z,85.7
2019-04-29T16:00:01.583Z,84.9
2019-04-29T16:04:53.618Z,85.2
2019-04-29T16:09:53.604Z,86.2
2019-04-29T16:14:53.624Z,85.9
2019-04-29T16:19:53.696Z,85.2
2019-04-29T16:25:04.787Z,85.3
2019-04-29T16:29:54.567Z,85.3
2019-04-29T16:34:53.634Z,85.3
2019-04-29T16:40:01.175Z,87
2019-04-29T16:44:54.314Z,85.5
2019-04-29T16:50:04.565Z,85.8
2019-04-29T16:55:05.673Z,86.3
2019-04-29T16:59:54.190Z,85.7
2019-04-29T17:04:54.005Z,86.4
2019-04-29T17:09:53.855Z,86.3
2019-04-29T17:15:20.333Z,87.3
2019-04-29T17:19:54.335Z,86.4
2019-04-29T17:24:53.820Z,86.9
2019-04-29T17:30:05.974Z,87
2019-04-29T17:35:00.993Z,87.1
2019-04-29T17:39:54.303Z,87.5
2019-04-29T17:44:53.950Z,86.3
2019-04-29T17:49:54.047Z,87
2019-04-29T17:54:55.372Z,86.8
2019-04-29T18:00:00.445Z,87.1
2019-04-29T18:04:57.732Z,86.6
2019-04-29T18:09:55.575Z,87
2019-04-29T18:14:55.503Z,87.6
2019-04-29T18:19:55.676Z,86.9
2019-04-29T18:24:56.175Z,86.7
2019-04-29T18:29:55.557Z,86.4
2019-04-29T18:34:56.307Z,86.2
2019-04-29T18:40:02.188Z,86.1
2019-04-29T18:45:00.560Z,85.9
2019-04-29T18:49:54.008Z,86.3
2019-04-29T18:54:55.167Z,86
2019-04-29T18:59:55.291Z,85.6
2019-04-29T19:04:57.383Z,86.2
2019-04-29T19:09:56.269Z,85.4
2019-04-29T19:15:11.386Z,85.2
2019-04-29T19:19:56.775Z,84.9
2019-04-29T19:24:57.749Z,85.8
2019-04-29T19:29:56.963Z,85.1
2019-04-29T19:35:00.447Z,85.7
2019-04-29T19:40:00.260Z,86.4
2019-04-29T19:44:56.264Z,85.3
2019-04-29T19:49:56.221Z,86.6
2019-04-29T19:55:01.511Z,85.8
2019-04-29T19:59:58.236Z,86.6
2019-04-29T20:04:59.468Z,86.4
2019-04-29T20:10:05.910Z,86.4
2019-04-29T20:15:01.951Z,86.6
2019-04-29T20:20:00.694Z,86.5
2019-04-29T20:24:56.145Z,86.1
2019-04-29T20:29:56.164Z,86.9
2019-04-29T20:35:07.202Z,85.5
2019-04-29T20:40:00.822Z,86.3
2019-04-29T20:44:55.748Z,85.6
2019-04-29T20:49:54.446Z,85.6
2019-04-29T20:55:02.769Z,85.9
2019-04-29T20:59:55.536Z,85.6
2019-04-29T21:04:58.480Z,86.3
2019-04-29T21:09:59.862Z,86.9
2019-04-29T21:14:53.793Z,86
2019-04-29T21:19:54.068Z,86.6
2019-04-29T21:24:55.304Z,86.9
2019-04-29T21:29:55.398Z,86.8
2019-04-29T21:34:55.724Z,87.3
2019-04-29T21:39:55.326Z,86.2
2019-04-29T21:44:53.979Z,87.4
2019-04-29T21:49:57.874Z,87.7
2019-04-29T21:54:56.957Z,87.5
2019-04-29T21:59:55.843Z,87.8
2019-04-29T22:04:55.504Z,87.5
2019-04-29T22:09:55.956Z,87.3
2019-04-29T22:14:58.136Z,87.4
2019-04-29T22:20:04.992Z,87.5
2019-04-29T22:25:09.483Z,86.8
2019-04-29T22:29:55.770Z,87.3
2019-04-29T22:35:01.770Z,86.1
2019-04-29T22:39:53.820Z,87.1
2019-04-29T22:45:00.689Z,86.5
2019-04-29T22:49:54.005Z,86.8
2019-04-29T22:55:01.716Z,86.4
2019-04-29T22:59:57.412Z,86.4
2019-04-29T23:04:54.979Z,87.8
2019-04-29T23:09:55.489Z,87.8
2019-04-29T23:14:53.841Z,87.3
2019-04-29T23:19:57.023Z,87.7
2019-04-29T23:24:55.931Z,87.1
2019-04-29T23:29:53.851Z,87.2
2019-04-29T23:34:57.105Z,86.9
2019-04-29T23:39:55.937Z,87
2019-04-29T23:44:57.147Z,87.1
2019-04-29T23:49:53.993Z,87.6
2019-04-29T23:54:53.863Z,87.8
2019-04-29T23:59:58.739Z,86.9
